Time;durP1;ratioP1;P1;durP2;ratioP2;P2;SDS_P1;SDS_P2;PMS_P1;PMS_P2;Temp;Humidity;BMP_temperature;BMP_pressure;BME280_temperature;BME280_humidity;BME280_pressure;Samples;Min_cycle;Max_cycle;Signal;HPM_P1;HPM_P2
2022/05/15 00:01:31;;;;;;;18.20;4.07;;;;;;;19.96;41.25;101942.63;5013486;28;20077;-63
2022/05/15 00:04:01;;;;;;;13.02;4.35;;;;;;;19.94;41.03;101947.50;5008835;28;20049;-63
2022/05/15 00:06:29;;;;;;;17.90;5.30;;;;;;;19.91;41.27;101945.28;5016259;28;20148;-63
2022/05/15 00:08:58;;;;;;;18.77;4.95;;;;;;;19.88;41.34;101944.97;5018149;28;20081;-64
2022/05/15 00:11:26;;;;;;;16.63;4.75;;;;;;;19.86;41.25;101942.50;5010683;28;20091;-63
2022/05/15 00:13:55;;;;;;;18.55;5.07;;;;;;;19.80;41.08;101930.72;5059656;28;20045;-65
2022/05/15 00:16:24;;;;;;;16.02;5.82;;;;;;;19.83;41.24;101934.84;5081515;28;20056;-66
2022/05/15 00:18:52;;;;;;;15.50;4.45;;;;;;;19.82;41.18;101933.19;5081878;28;20052;-66
2022/05/15 00:21:21;;;;;;;14.27;4.43;;;;;;;19.79;41.19;101926.34;5083365;28;20083;-64
2022/05/15 00:23:49;;;;;;;17.50;4.40;;;;;;;19.80;41.29;101935.34;5075649;28;20353;-62
2022/05/15 00:26:17;;;;;;;17.80;5.35;;;;;;;19.78;41.25;101924.69;5095011;28;20121;-66
2022/05/15 00:28:45;;;;;;;16.80;4.68;;;;;;;19.78;41.23;101926.59;5074498;28;20048;-67
2022/05/15 00:31:13;;;;;;;14.30;4.32;;;;;;;19.68;41.40;101908.22;5082104;28;20052;-64
2022/05/15 00:33:43;;;;;;;15.02;4.68;;;;;;;19.72;41.25;101922.16;5081296;28;20254;-64
2022/05/15 00:36:11;;;;;;;16.05;5.18;;;;;;;19.70;41.42;101927.06;5082584;28;20055;-64
2022/05/15 00:38:40;;;;;;;16.70;5.25;;;;;;;19.67;41.60;101925.66;5078446;28;20083;-64
2022/05/15 00:41:09;;;;;;;16.17;4.90;;;;;;;19.66;41.56;101925.91;5076933;28;20098;-64
2022/05/15 00:43:43;;;;;;;16.17;4.32;;;;;;;19.64;41.37;101925.34;5072649;28;20056;-64
2022/05/15 00:46:14;;;;;;;15.50;4.75;;;;;;;19.63;41.38;101923.72;5072548;28;20055;-63
2022/05/15 00:48:43;;;;;;;15.95;5.32;;;;;;;19.61;41.52;101918.50;5069815;28;20052;-63
2022/05/15 00:51:17;;;;;;;16.80;4.80;;;;;;;19.59;41.49;101914.38;5078971;28;20068;-63
2022/05/15 00:53:49;;;;;;;21.15;6.30;;;;;;;19.58;41.48;101916.28;5074872;28;20076;-63
2022/05/15 00:56:20;;;;;;;17.33;5.07;;;;;;;19.57;41.54;101913.81;5083015;28;20044;-64
2022/05/15 00:58:53;;;;;;;14.43;5.00;;;;;;;19.42;41.58;101898.91;5085003;28;20128;-64
2022/05/15 01:01:21;;;;;;;16.83;4.57;;;;;;;19.51;41.67;101915.63;5075502;28;20460;-64
2022/05/15 01:03:49;;;;;;;13.60;5.10;;;;;;;19.49;41.57;101915.88;5082940;28;20053;-63
2022/05/15 01:06:17;;;;;;;11.52;4.53;;;;;;;19.45;41.48;101911.19;5083860;28;20564;-63
2022/05/15 01:08:46;;;;;;;14.65;4.30;;;;;;;19.46;41.51;101918.31;5072334;28;20091;-63
2022/05/15 01:11:19;;;;;;;14.38;4.40;;;;;;;19.43;41.77;101916.91;5072734;28;20072;-63
2022/05/15 01:13:50;;;;;;;16.80;5.43;;;;;;;19.40;41.36;101914.69;5076074;28;20037;-63
2022/05/15 01:16:25;;;;;;;15.88;4.57;;;;;;;19.38;41.56;101916.84;5075788;28;20053;-63
2022/05/15 01:18:58;;;;;;;21.27;5.37;;;;;;;19.35;41.75;101913.81;5074871;28;20049;-63
2022/05/15 01:21:31;;;;;;;18.08;4.43;;;;;;;19.34;41.82;101915.72;5077932;28;20108;-64
2022/05/15 01:24:00;;;;;;;13.68;4.15;;;;;;;19.33;41.77;101914.06;5083486;28;20068;-62
2022/05/15 01:26:29;;;;;;;18.75;4.97;;;;;;;19.32;41.75;101915.13;5080669;28;20061;-63
2022/05/15 01:29:00;;;;;;;16.13;5.18;;;;;;;19.30;41.90;101911.84;5076827;28;20044;-63
2022/05/15 01:31:28;;;;;;;14.73;4.40;;;;;;;19.27;41.93;101923.25;5076373;28;20052;-64
2022/05/15 01:33:57;;;;;;;16.63;4.97;;;;;;;19.24;41.83;101912.84;5076709;28;20079;-63
2022/05/15 01:36:27;;;;;;;16.17;5.05;;;;;;;19.18;41.86;101916.59;5072267;28;20090;-63
2022/05/15 01:38:55;;;;;;;18.60;6.10;;;;;;;19.22;42.03;101923.19;5075004;28;20036;-63
2022/05/15 01:41:24;;;;;;;16.98;4.50;;;;;;;19.19;42.16;101919.06;5074940;28;20068;-63
2022/05/15 01:43:53;;;;;;;16.27;4.40;;;;;;;19.14;41.96;101921.72;5078764;28;20645;-64
2022/05/15 01:46:22;;;;;;;15.07;4.20;;;;;;;19.16;41.91;101919.56;5070370;28;20037;-63
2022/05/15 01:48:51;;;;;;;13.55;3.90;;;;;;;19.15;42.08;101922.56;5068998;28;20045;-63
2022/05/15 01:51:19;;;;;;;19.58;5.60;;;;;;;19.13;41.96;101919.25;5073778;28;20087;-63
2022/05/15 01:53:48;;;;;;;22.08;5.18;;;;;;;19.12;42.05;101923.06;5079557;28;20071;-64
2022/05/15 01:56:16;;;;;;;12.57;3.95;;;;;;;19.10;42.05;101920.59;5070014;28;20464;-64
2022/05/15 01:58:44;;;;;;;14.73;5.13;;;;;;;19.07;42.00;101912.09;5068698;28;20050;-63
2022/05/15 02:01:12;;;;;;;20.08;5.15;;;;;;;19.08;42.00;101911.84;5071977;28;20081;-64
2022/05/15 02:03:40;;;;;;;12.05;5.18;;;;;;;19.07;41.94;101915.63;5072618;28;20044;-63
2022/05/15 02:06:08;;;;;;;16.23;4.82;;;;;;;19.06;42.20;101916.75;5062746;28;20081;-63
2022/05/15 02:08:37;;;;;;;12.55;3.88;;;;;;;19.02;42.21;101910.16;5071791;28;20052;-63
2022/05/15 02:11:06;;;;;;;13.48;4.63;;;;;;;19.01;42.20;101911.22;5079262;28;20068;-63
2022/05/15 02:13:34;;;;;;;18.42;5.65;;;;;;;19.00;42.24;101911.47;5073076;28;20049;-63
2022/05/15 02:16:03;;;;;;;13.48;5.13;;;;;;;18.99;42.45;101907.09;5078141;28;20072;-63
2022/05/15 02:18:31;;;;;;;14.02;4.57;;;;;;;18.94;42.08;101907.03;5075154;28;20091;-63
2022/05/15 02:20:59;;;;;;;15.15;4.45;;;;;;;18.96;42.47;101913.88;5076202;28;20044;-64
2022/05/15 02:23:27;;;;;;;12.50;4.30;;;;;;;18.94;42.55;101905.16;5072182;28;20069;-64
2022/05/15 02:25:55;;;;;;;16.30;5.10;;;;;;;18.93;42.37;101899.94;5076350;28;20079;-63
2022/05/15 02:28:25;;;;;;;16.40;4.60;;;;;;;18.92;42.43;101903.75;5079135;28;20052;-63
2022/05/15 02:30:52;;;;;;;16.13;4.07;;;;;;;18.88;42.21;101908.03;5077909;28;20068;-63
2022/05/15 02:33:20;;;;;;;11.48;4.32;;;;;;;18.83;42.41;101904.19;5073755;28;20649;-63
2022/05/15 02:35:48;;;;;;;14.85;4.88;;;;;;;18.86;42.62;101902.84;5067952;28;20090;-62
2022/05/15 02:38:16;;;;;;;12.18;5.05;;;;;;;18.83;42.48;101903.34;5069082;28;20123;-63
2022/05/15 02:40:44;;;;;;;14.88;4.35;;;;;;;18.83;42.58;101906.06;5070438;28;20051;-64
2022/05/15 02:43:12;;;;;;;15.50;5.20;;;;;;;18.79;42.68;101903.03;5063561;28;20083;-63
2022/05/15 02:45:41;;;;;;;16.17;4.68;;;;;;;18.77;42.75;101905.19;5079338;28;20043;-64
2022/05/15 02:51:03;;;;;;;15.48;4.95;;;;;;;18.75;42.57;101893.72;5067206;28;20056;-63
2022/05/15 02:51:05;;;;;;;14.80;5.22;;;;;;;18.73;42.63;101897.75;5069696;28;20075;-63
2022/05/15 02:53:36;;;;;;;16.90;5.60;;;;;;;18.70;42.91;101896.38;5078898;28;20980;-63
2022/05/15 02:56:07;;;;;;;12.63;4.60;;;;;;;18.68;42.89;101895.78;5074637;28;20075;-63
2022/05/15 02:58:35;;;;;;;14.75;4.80;;;;;;;18.66;42.81;101894.38;5071089;28;20049;-63
2022/05/15 03:01:04;;;;;;;14.35;5.07;;;;;;;18.64;42.96;101891.91;5079011;28;20082;-62
2022/05/15 03:03:32;;;;;;;16.27;5.10;;;;;;;18.63;42.95;101881.28;5072329;28;20091;-63
2022/05/15 03:06:00;;;;;;;16.20;4.93;;;;;;;18.61;43.19;101883.41;5066219;28;20124;-63
2022/05/15 03:08:28;;;;;;;12.75;4.60;;;;;;;18.59;43.03;101875.47;5067591;28;20060;-64
2022/05/15 03:10:56;;;;;;;17.08;5.15;;;;;;;18.57;43.01;101885.78;5078315;28;20052;-63
2022/05/15 03:13:24;;;;;;;13.85;4.43;;;;;;;18.54;42.97;101880.84;5068952;28;20052;-63
2022/05/15 03:15:51;;;;;;;13.73;4.57;;;;;;;18.52;43.18;101878.38;5076949;28;20068;-63
2022/05/15 03:18:21;;;;;;;17.38;4.95;;;;;;;18.51;43.35;101882.16;5078637;28;20072;-63
2022/05/15 03:20:49;;;;;;;13.10;4.50;;;;;;;18.48;43.09;101879.13;5074245;28;20107;-63
2022/05/15 03:23:17;;;;;;;15.65;4.80;;;;;;;18.47;43.28;101872.84;5074374;28;20480;-64
2022/05/15 03:25:45;;;;;;;16.13;4.43;;;;;;;18.44;43.37;101869.81;5077618;28;20052;-63
2022/05/15 03:28:13;;;;;;;15.05;4.75;;;;;;;18.43;43.32;101879.03;5079558;28;20076;-63
2022/05/15 03:30:42;;;;;;;16.30;4.53;;;;;;;18.40;43.27;101868.66;5074738;28;20079;-63
2022/05/15 03:33:12;;;;;;;12.73;5.30;;;;;;;18.40;43.29;101879.53;5076650;28;20044;-63
2022/05/15 03:35:41;;;;;;;16.15;5.47;;;;;;;18.37;43.49;101875.41;5080171;28;20040;-63
2022/05/15 03:38:09;;;;;;;14.85;5.68;;;;;;;18.36;43.35;101875.66;5076552;28;20556;-64
2022/05/15 03:40:38;;;;;;;13.50;4.60;;;;;;;18.35;43.43;101874.84;5067965;28;20121;-64
2022/05/15 03:43:06;;;;;;;21.63;4.72;;;;;;;18.33;43.46;101876.16;5078664;28;20048;-63
2022/05/15 03:45:34;;;;;;;14.32;5.63;;;;;;;18.33;43.54;101876.16;5071085;28;20048;-64
2022/05/15 03:48:03;;;;;;;12.15;5.03;;;;;;;18.30;43.65;101872.03;5077691;28;20151;-62
2022/05/15 03:50:31;;;;;;;14.13;4.88;;;;;;;18.28;43.70;101874.19;5068257;28;20102;-63
2022/05/15 03:53:00;;;;;;;12.45;5.97;;;;;;;18.27;43.66;101872.53;5076270;28;20102;-64
2022/05/15 03:55:27;;;;;;;12.88;5.22;;;;;;;18.25;43.59;101874.69;5076171;28;20087;-63
2022/05/15 03:57:56;;;;;;;13.07;4.38;;;;;;;18.24;43.60;101877.66;5076964;28;20077;-63
2022/05/15 04:00:24;;;;;;;17.48;5.53;;;;;;;18.20;43.85;101878.16;5072493;28;20072;-63
2022/05/15 04:02:52;;;;;;;12.15;5.60;;;;;;;18.19;43.85;101873.78;5075595;28;20464;-63
2022/05/15 04:05:21;;;;;;;19.30;5.60;;;;;;;18.18;43.83;101874.84;5064887;28;20060;-63
2022/05/15 04:07:51;;;;;;;20.42;5.43;;;;;;;18.14;43.94;101876.41;5069511;28;20068;-63
2022/05/15 04:10:22;;;;;;;16.90;6.47;;;;;;;18.14;43.91;101876.41;5072428;28;20102;-63
2022/05/15 04:12:50;;;;;;;18.05;5.18;;;;;;;18.12;43.73;101883.16;5080591;28;20541;-63
2022/05/15 04:15:18;;;;;;;15.85;5.78;;;;;;;18.12;43.85;101885.88;5080646;28;20112;-63
2022/05/15 04:17:49;;;;;;;17.58;5.05;;;;;;;18.11;44.07;101895.94;5083626;28;20072;-64
2022/05/15 04:20:19;;;;;;;17.95;5.40;;;;;;;18.09;43.88;101898.09;5066831;28;20076;-64
2022/05/15 04:22:47;;;;;;;14.55;5.03;;;;;;;18.06;43.96;101892.31;5079022;28;20098;-63
2022/05/15 04:25:15;;;;;;;14.07;5.25;;;;;;;18.06;43.93;101895.88;5078341;28;20399;-63
2022/05/15 04:27:44;;;;;;;15.68;4.45;;;;;;;18.04;43.99;101889.03;5071300;28;20173;-63
2022/05/15 04:30:15;;;;;;;15.10;5.75;;;;;;;18.03;44.20;101881.94;5071950;28;20048;-63
2022/05/15 04:32:44;;;;;;;21.05;5.63;;;;;;;17.82;44.35;101850.84;5071803;28;20132;-63
2022/05/15 04:35:12;;;;;;;11.88;4.53;;;;;;;18.00;44.19;101882.41;5079191;28;20063;-63
2022/05/15 04:37:40;;;;;;;19.13;6.93;;;;;;;17.98;44.34;101881.84;5068749;28;20072;-63
2022/05/15 04:40:09;;;;;;;16.60;5.53;;;;;;;17.96;44.33;101884.81;5076066;28;20537;-63
2022/05/15 04:42:37;;;;;;;17.55;5.00;;;;;;;17.95;44.21;101880.44;5082278;28;20087;-63
2022/05/15 04:45:08;;;;;;;15.07;4.47;;;;;;;17.94;44.34;101878.78;5074779;28;20045;-63
2022/05/15 04:47:35;;;;;;;24.45;5.68;;;;;;;17.92;44.42;101883.66;5078235;28;20052;-63
2022/05/15 04:50:04;;;;;;;14.05;4.93;;;;;;;17.90;44.39;101880.34;5078456;28;20053;-63
2022/05/15 04:52:31;;;;;;;16.92;6.38;;;;;;;17.88;44.46;101877.88;5074481;28;20085;-62
2022/05/15 04:54:59;;;;;;;16.25;4.95;;;;;;;17.88;44.67;101874.31;5072019;28;20076;-62
2022/05/15 04:57:27;;;;;;;12.48;5.25;;;;;;;17.86;44.53;101885.44;5083059;28;20057;-63
2022/05/15 04:59:55;;;;;;;15.60;5.05;;;;;;;17.84;44.52;101876.72;5077677;28;20072;-62
2022/05/15 05:02:24;;;;;;;13.07;4.38;;;;;;;17.84;44.70;101884.03;5077745;28;20059;-64
2022/05/15 05:04:51;;;;;;;21.20;6.32;;;;;;;17.82;44.77;101878.84;5068796;28;20070;-64
2022/05/15 05:07:19;;;;;;;16.15;5.07;;;;;;;17.65;44.80;101863.53;5078923;28;20064;-65
2022/05/15 05:09:47;;;;;;;18.73;5.38;;;;;;;17.81;44.70;101889.97;5074598;28;20084;-65
2022/05/15 05:12:17;;;;;;;16.33;4.82;;;;;;;17.80;44.71;101896.47;5081563;28;20563;-63
2022/05/15 05:14:45;;;;;;;17.25;5.70;;;;;;;17.81;44.59;101893.53;5081475;28;20076;-63
2022/05/15 05:17:13;;;;;;;15.75;5.55;;;;;;;17.82;44.62;101900.59;5071066;28;20136;-64
2022/05/15 05:19:42;;;;;;;14.13;5.35;;;;;;;17.82;44.40;101900.59;5071860;28;20068;-64
2022/05/15 05:22:10;;;;;;;13.63;5.45;;;;;;;17.83;44.47;101898.72;4717213;28;10000106;-64
2022/05/15 05:24:37;;;;;;;17.33;4.82;;;;;;;17.84;44.33;101897.66;5074316;28;20080;-65
2022/05/15 05:27:06;;;;;;;14.82;4.95;;;;;;;17.84;44.47;101897.66;5080679;28;20305;-64
2022/05/15 05:29:34;;;;;;;13.43;4.63;;;;;;;17.85;44.53;101891.13;5069626;28;20087;-64
2022/05/15 05:32:02;;;;;;;17.05;5.72;;;;;;;17.87;44.38;101883.56;5071467;28;20044;-64
2022/05/15 05:34:31;;;;;;;15.43;4.80;;;;;;;17.89;44.36;101884.97;5072249;28;20091;-63
2022/05/15 05:37:00;;;;;;;13.85;4.55;;;;;;;17.93;44.43;101893.47;5071727;28;20080;-63
2022/05/15 05:39:29;;;;;;;11.50;5.13;;;;;;;17.95;44.30;101888.59;4713040;28;9999619;-63
2022/05/15 05:41:57;;;;;;;15.93;6.05;;;;;;;17.97;44.51;101886.47;5068653;28;20057;-63
2022/05/15 05:44:25;;;;;;;10.43;4.68;;;;;;;17.99;44.50;101887.03;5088695;28;20080;-63
2022/05/15 05:46:54;;;;;;;14.73;4.95;;;;;;;18.01;44.42;101886.78;5072956;28;20044;-62
2022/05/15 05:49:22;;;;;;;14.32;4.63;;;;;;;18.01;44.68;101886.78;5073911;28;20076;-64
2022/05/15 05:51:49;;;;;;;12.07;4.65;;;;;;;18.04;44.49;101898.00;5076140;28;20563;-64
2022/05/15 05:54:19;;;;;;;12.75;4.50;;;;;;;18.04;44.45;101894.47;5073110;28;20091;-63
2022/05/15 05:56:46;;;;;;;14.43;4.40;;;;;;;18.04;44.53;101889.84;5069533;28;20051;-64
2022/05/15 05:59:14;;;;;;;10.32;4.40;;;;;;;18.04;44.35;101892.56;5064730;28;20045;-61
2022/05/15 06:01:42;;;;;;;17.15;5.75;;;;;;;18.02;44.43;101889.25;5066622;28;20044;-61
2022/05/15 06:06:57;;;;;;;16.33;4.57;;;;;;;17.98;44.46;101898.16;5067559;28;20079;-61
2022/05/15 06:09:26;;;;;;;11.38;4.25;;;;;;;17.94;44.70;101892.38;5070390;28;20063;-63
2022/05/15 06:11:58;;;;;;;12.38;4.97;;;;;;;17.94;44.96;101888.84;5077945;28;20052;-62
2022/05/15 06:14:26;;;;;;;12.35;5.35;;;;;;;17.90;44.85;101885.78;5064763;28;20221;-61
2022/05/15 06:16:54;;;;;;;11.20;4.70;;;;;;;17.90;45.29;101885.78;5070095;28;20592;-63
2022/05/15 06:19:22;;;;;;;11.82;4.75;;;;;;;17.89;45.16;101890.41;5074027;28;20101;-63
2022/05/15 06:21:50;;;;;;;10.65;4.35;;;;;;;17.89;45.21;101886.84;5073688;28;20072;-64
2022/05/15 06:24:18;;;;;;;11.57;4.93;;;;;;;17.88;45.30;101888.75;5079814;28;20045;-62
2022/05/15 06:26:47;;;;;;;14.77;5.15;;;;;;;17.88;45.42;101885.22;5078464;28;20049;-62
2022/05/15 06:29:15;;;;;;;14.80;4.90;;;;;;;17.88;45.46;101883.31;5076503;28;20048;-62
2022/05/15 06:31:42;;;;;;;12.82;6.25;;;;;;;17.87;45.34;101883.56;5070821;28;20072;-62
2022/05/15 06:34:10;;;;;;;17.20;5.30;;;;;;;17.86;45.68;101874.56;5074251;28;20152;-64
2022/05/15 06:36:38;;;;;;;11.25;5.00;;;;;;;17.86;45.47;101876.47;5076998;28;20064;-62
2022/05/15 06:39:06;;;;;;;13.93;5.22;;;;;;;17.86;45.55;101879.19;5076179;28;20163;-62
2022/05/15 06:41:34;;;;;;;11.23;4.70;;;;;;;17.86;45.35;101882.72;5078321;28;20158;-62
2022/05/15 06:44:03;;;;;;;16.45;4.88;;;;;;;17.86;45.33;101874.56;5073489;28;20560;-63
2022/05/15 06:46:31;;;;;;;12.80;4.80;;;;;;;17.86;45.37;101879.19;5076313;28;20052;-63
2022/05/15 06:48:59;;;;;;;10.05;5.00;;;;;;;17.86;45.62;101880.00;5070709;28;20064;-62
2022/05/15 06:51:27;;;;;;;11.40;4.70;;;;;;;17.86;45.57;101884.63;5073142;28;20084;-63
2022/05/15 06:53:55;;;;;;;13.23;4.57;;;;;;;17.86;45.55;101877.28;5076585;28;20063;-63
2022/05/15 06:59:09;;;;;;;10.27;3.58;;;;;;;17.87;45.50;101891.72;5071347;28;20044;-63
2022/05/15 07:01:37;;;;;;;12.15;4.97;;;;;;;17.77;45.82;101869.78;5070839;28;20112;-66
2022/05/15 07:04:05;;;;;;;10.25;4.10;;;;;;;17.78;45.79;101868.72;5075117;28;20048;-65
2022/05/15 07:06:33;;;;;;;12.32;5.32;;;;;;;17.85;45.55;101889.25;5072030;28;20048;-67
2022/05/15 07:09:00;;;;;;;8.60;3.67;;;;;;;17.91;45.57;101889.34;5071295;28;20137;-74
2022/05/15 07:11:28;;;;;;;10.35;3.88;;;;;;;17.92;45.58;101891.81;4723413;28;9999937;-65
2022/05/15 07:13:56;;;;;;;10.63;3.80;;;;;;;17.81;45.63;101877.19;5077843;28;20071;-64
2022/05/15 07:16:25;;;;;;;11.68;4.10;;;;;;;17.94;45.63;101899.72;5073188;28;20053;-64
2022/05/15 07:18:53;;;;;;;11.15;4.13;;;;;;;17.95;45.59;101895.94;5073597;28;20037;-64
2022/05/15 07:21:21;;;;;;;10.23;3.95;;;;;;;17.96;45.92;101898.41;5069313;28;20072;-65
2022/05/15 07:23:49;;;;;;;10.10;4.18;;;;;;;17.98;45.91;101901.69;5078472;28;20045;-65
2022/05/15 07:26:16;;;;;;;10.30;4.18;;;;;;;18.00;45.80;101896.03;5080466;28;20080;-64
2022/05/15 07:28:50;;;;;;;8.25;3.40;;;;;;;18.01;45.88;101894.94;5079809;28;20055;-64
2022/05/15 07:31:18;;;;;;;8.73;3.65;;;;;;;17.96;45.87;101890.25;5073041;28;20491;-65
2022/05/15 07:33:49;;;;;;;13.27;4.30;;;;;;;18.02;46.41;101891.16;5064757;28;20352;-64
2022/05/15 07:36:18;;;;;;;10.15;4.35;;;;;;;18.02;46.38;101886.53;5073110;28;20506;-65
2022/05/15 07:38:46;;;;;;;8.80;4.32;;;;;;;18.03;46.62;101885.47;5065913;28;20072;-64
2022/05/15 07:41:14;;;;;;;11.30;3.90;;;;;;;18.05;46.47;101890.66;5077909;28;20083;-64
2022/05/15 07:43:42;;;;;;;8.57;4.20;;;;;;;18.06;46.60;101884.97;5077265;28;20513;-65
2022/05/15 07:46:10;;;;;;;8.52;3.60;;;;;;;18.09;46.56;101886.38;5067979;28;20533;-65
2022/05/15 07:48:38;;;;;;;12.50;4.45;;;;;;;18.09;46.48;101884.50;5084643;28;20044;-65
2022/05/15 07:51:07;;;;;;;12.40;3.85;;;;;;;18.12;46.42;101886.72;5073823;28;20068;-65
2022/05/15 07:53:35;;;;;;;8.00;3.75;;;;;;;18.14;46.68;101881.03;5071259;28;20060;-65
2022/05/15 07:56:03;;;;;;;10.65;4.20;;;;;;;18.14;46.74;101886.47;5085387;28;20047;-66
2022/05/15 07:58:31;;;;;;;9.85;3.58;;;;;;;18.16;46.62;101878.88;5083879;28;20045;-66
2022/05/15 08:01:03;;;;;;;10.32;3.72;;;;;;;18.19;46.48;101881.13;5065734;28;20068;-65
2022/05/15 08:03:33;;;;;;;11.93;3.70;;;;;;;18.20;46.72;101877.31;5076331;28;20049;-65
2022/05/15 08:08:53;;;;;;;12.88;4.85;;;;;;;18.23;46.62;101878.72;5018707;28;20088;-65
2022/05/15 08:11:21;;;;;;;9.38;3.95;;;;;;;18.25;46.81;101882.03;5009431;28;20125;-65
2022/05/15 08:13:49;;;;;;;10.45;4.03;;;;;;;18.23;46.63;101862.41;5008786;28;20045;-64
2022/05/15 08:16:17;;;;;;;7.30;3.67;;;;;;;18.26;46.86;101868.16;5019205;28;20372;-65
2022/05/15 08:24:17;;;;;;;7.03;3.63;;;;;;;18.30;47.12;101863.88;5009932;28;20042;-64
2022/05/15 08:26:45;;;;;;;11.07;4.45;;;;;;;18.31;47.20;101857.34;5002759;28;20053;-65
2022/05/15 08:29:13;;;;;;;10.77;3.47;;;;;;;18.34;47.24;101854.13;5005614;28;20589;-65
2022/05/15 08:31:41;;;;;;;10.65;3.60;;;;;;;18.35;47.17;101850.34;5002783;28;20053;-66
2022/05/15 08:34:09;;;;;;;8.65;3.63;;;;;;;18.38;47.16;101844.41;5013616;28;20045;-65
2022/05/15 08:36:41;;;;;;;9.48;4.47;;;;;;;18.40;47.25;101844.97;5002559;28;20070;-65
2022/05/15 08:39:10;;;;;;;7.55;3.42;;;;;;;18.38;47.31;101830.78;5014797;28;20073;-65
2022/05/15 08:41:46;;;;;;;10.02;3.20;;;;;;;18.46;47.40;101832.25;5010546;28;20074;-65
2022/05/15 08:44:18;;;;;;;9.77;3.22;;;;;;;18.47;47.12;101834.75;5003826;28;20110;-63
2022/05/15 08:47:03;;;;;;;8.40;3.33;;;;;;;18.50;47.19;101830.69;5076595;28;20405;-65
2022/05/15 08:49:36;;;;;;;8.45;3.53;;;;;;;18.53;47.44;101827.47;5067181;28;20113;-65
2022/05/15 08:52:11;;;;;;;7.63;3.55;;;;;;;18.56;47.18;101821.53;5084334;28;20040;-65
2022/05/15 08:54:42;;;;;;;13.18;3.67;;;;;;;18.57;47.12;101823.16;5083755;28;20076;-65
2022/05/15 08:57:17;;;;;;;10.93;4.72;;;;;;;18.55;47.22;101808.97;5081667;28;20044;-65
2022/05/15 08:59:54;;;;;;;9.43;3.17;;;;;;;18.63;47.19;101822.19;5082976;28;20072;-65
2022/05/15 09:02:23;;;;;;;;;;;;;;;18.66;47.32;101816.25;5083685;28;20059;-65
2022/05/15 09:04:53;;;;;;;9.77;3.90;;;;;;;18.70;47.14;101816.56;5083809;28;19926;-65
2022/05/15 09:07:34;;;;;;;11.48;3.42;;;;;;;18.74;47.01;101820.44;5084561;28;20106;-65
2022/05/15 09:10:13;;;;;;;13.68;4.32;;;;;;;18.78;46.96;101825.13;5075056;28;20048;-66
2022/05/15 09:12:48;;;;;;;9.00;3.30;;;;;;;18.81;46.91;101821.91;5082680;28;20064;-65
2022/05/15 09:15:20;;;;;;;7.90;3.13;;;;;;;18.86;46.75;101823.84;5080346;28;20246;-64
2022/05/15 09:17:57;;;;;;;12.32;3.45;;;;;;;18.94;46.62;101831.59;5074614;28;20115;-65
2022/05/15 09:20:32;;;;;;;;;;;;;;;18.97;46.60;101822.09;5081920;28;20067;-65
2022/05/15 09:23:06;;;;;;;12.20;2.67;;;;;;;19.01;46.38;101825.94;5082202;28;19927;-64
2022/05/15 09:25:35;;;;;;;7.28;2.70;;;;;;;19.04;46.26;101825.44;5075932;28;20387;-65
2022/05/15 09:28:07;;;;;;;7.78;3.17;;;;;;;19.07;45.95;101816.72;5076516;28;20071;-65
2022/05/15 09:30:39;;;;;;;9.48;3.13;;;;;;;19.11;45.94;101817.88;5080493;28;20045;-65
2022/05/15 09:33:08;;;;;;;13.82;3.10;;;;;;;19.16;45.92;101813.28;5083581;28;20056;-65
2022/05/15 09:35:41;;;;;;;7.72;2.67;;;;;;;19.19;45.89;101806.50;5077459;28;20052;-64
2022/05/15 09:38:29;;;;;;;7.63;2.53;;;;;;;19.26;46.00;101815.31;5078482;28;20041;-64
2022/05/15 09:43:57;;;;;;;7.82;2.65;;;;;;;19.35;45.80;101811.03;5072674;28;20044;-63
2022/05/15 09:46:26;;;;;;;6.45;2.83;;;;;;;19.39;45.55;101809.44;5082509;28;20446;-64
2022/05/15 09:48:57;;;;;;;9.50;2.53;;;;;;;19.43;45.64;101793.41;5081990;28;20044;-64
2022/05/15 09:51:40;;;;;;;8.45;3.13;;;;;;;19.45;45.35;101802.16;5068783;28;20076;-63
2022/05/15 09:54:09;;;;;;;10.00;2.65;;;;;;;19.46;45.34;101793.72;5079945;28;20080;-64
2022/05/15 09:56:38;;;;;;;7.57;2.75;;;;;;;19.49;45.23;101795.91;5071743;28;20044;-64
2022/05/15 09:59:13;;;;;;;9.63;2.33;;;;;;;19.53;44.95;101784.53;5078323;28;20037;-64
2022/05/15 10:01:51;;;;;;;8.32;2.60;;;;;;;19.56;44.93;101784.00;5079299;28;20053;-65
2022/05/15 10:04:24;;;;;;;8.75;2.58;;;;;;;19.61;45.21;101790.34;5064491;28;20048;-64
2022/05/15 10:06:54;;;;;;;6.53;2.90;;;;;;;19.66;45.12;101790.38;5075758;28;20048;-67
2022/05/15 10:09:28;;;;;;;7.65;2.42;;;;;;;19.71;45.19;101784.97;5080660;28;20040;-64
2022/05/15 10:12:02;;;;;;;5.00;2.42;;;;;;;19.76;45.18;101793.19;5078895;28;20044;-63
2022/05/15 10:14:39;;;;;;;8.35;3.28;;;;;;;19.78;44.86;101790.22;5070002;28;20067;-64
2022/05/15 10:17:08;;;;;;;8.40;2.65;;;;;;;19.82;44.90;101774.97;5077856;28;20056;-64
2022/05/15 10:19:43;;;;;;;9.70;3.28;;;;;;;19.87;45.05;101785.91;5070337;28;20247;-64
2022/05/15 10:22:25;;;;;;;7.57;2.40;;;;;;;19.92;45.10;101785.13;5074608;28;20068;-62
2022/05/15 10:25:18;;;;;;;5.90;2.20;;;;;;;19.97;45.06;101776.97;5073839;28;20124;-64
2022/05/15 10:27:50;;;;;;;6.68;2.40;;;;;;;20.01;45.06;101773.47;5070922;28;20127;-63
2022/05/15 10:30:24;;;;;;;9.30;2.60;;;;;;;20.06;45.09;101781.69;5079773;28;20127;-64
2022/05/15 10:32:56;;;;;;;7.70;2.53;;;;;;;20.05;44.93;101766.41;5082709;28;20537;-64
2022/05/15 10:35:36;;;;;;;7.75;2.78;;;;;;;20.15;45.28;101766.47;5079820;28;20082;-64
2022/05/15 10:38:14;;;;;;;5.75;2.42;;;;;;;20.21;45.32;101770.06;5070039;28;20075;-64
2022/05/15 10:40:48;;;;;;;7.65;2.60;;;;;;;20.24;45.75;101763.25;5069194;28;20417;-64
2022/05/15 10:43:39;;;;;;;9.75;2.83;;;;;;;20.35;45.73;101767.69;5079124;28;20055;-65
2022/05/15 10:46:16;;;;;;;8.55;2.85;;;;;;;20.42;45.66;101750.00;5082270;28;20045;-65
2022/05/15 10:48:55;;;;;;;7.25;2.47;;;;;;;20.52;45.51;101760.16;5081404;28;20049;-65
2022/05/15 10:51:25;;;;;;;6.10;2.78;;;;;;;20.59;45.76;101755.28;5080520;28;20059;-65
2022/05/15 10:57:29;;;;;;;9.85;2.67;;;;;;;20.75;45.58;101748.78;5073038;28;20072;-65
2022/05/15 11:00:12;;;;;;;10.70;2.97;;;;;;;20.83;45.34;101743.84;5079714;28;20036;-64
2022/05/15 11:03:28;;;;;;;9.35;3.35;;;;;;;20.89;45.29;101748.25;5078695;28;20181;-64
2022/05/15 11:06:19;;;;;;;6.05;2.72;;;;;;;20.98;45.11;101758.38;5075832;28;20049;-64
2022/05/15 11:08:54;;;;;;;10.82;2.80;;;;;;;21.07;45.18;101745.84;5057133;28;20059;-64
2022/05/15 11:11:29;;;;;;;4.72;2.15;;;;;;;21.15;45.43;101744.47;5067056;28;20098;-64
2022/05/15 11:13:59;;;;;;;7.53;3.15;;;;;;;21.20;45.21;101743.66;5073370;28;20465;-64
2022/05/15 11:16:36;;;;;;;8.48;2.58;;;;;;;21.25;45.62;101733.59;5078500;28;20380;-65
2022/05/15 11:19:23;;;;;;;6.65;2.75;;;;;;;21.32;45.28;101744.25;5076201;28;20040;-64
2022/05/15 11:21:58;;;;;;;7.05;2.72;;;;;;;21.26;44.73;101727.03;5073838;28;20045;-65
2022/05/15 11:24:38;;;;;;;8.90;3.05;;;;;;;21.38;44.50;101726.78;5065924;28;20073;-65
2022/05/15 11:27:13;;;;;;;5.38;2.15;;;;;;;21.42;44.84;101725.94;5080761;28;20052;-64
2022/05/15 11:29:46;;;;;;;6.47;2.28;;;;;;;21.47;44.53;101718.84;5073462;28;20045;-64
2022/05/15 11:33:01;;;;;;;5.47;2.40;;;;;;;21.52;44.54;101716.09;5079114;28;20107;-64
2022/05/15 11:35:33;;;;;;;9.68;2.83;;;;;;;21.57;44.60;101716.09;5034273;28;20057;-64
2022/05/15 11:38:11;;;;;;;5.90;2.63;;;;;;;21.64;44.70;101700.22;5036157;28;20045;-64
2022/05/15 11:40:42;;;;;;;8.93;2.78;;;;;;;21.72;45.19;101694.22;5024203;28;20041;-65
2022/05/15 11:43:53;;;;;;;5.97;2.35;;;;;;;21.79;44.63;101700.22;5028343;28;20053;-64
2022/05/15 11:46:21;;;;;;;5.90;2.80;;;;;;;21.82;43.33;101690.63;5025644;28;20077;-63
2022/05/15 11:48:54;;;;;;;9.88;2.60;;;;;;;21.82;41.34;101685.97;5026658;28;20058;-64
2022/05/15 11:51:28;;;;;;;4.35;2.28;;;;;;;21.87;42.55;101688.72;5036496;28;20077;-66
2022/05/15 11:54:01;;;;;;;7.85;2.05;;;;;;;21.93;42.91;101675.84;5038848;28;20052;-65
2022/05/15 11:56:37;;;;;;;6.82;2.35;;;;;;;21.94;41.77;101680.22;5028551;28;20138;-65